Terminal Aerodrome Forecast
Issued by NWS Charleston, WV

Current Version | Previous Version | Graphics & Text | Print | Product List | Glossary On
Versions: 1 2 3 4 5 6 7 8 9 10 11 12 13 14 15 16 17 18 19 20 21 22 23
000
FTUS41 KRLX 151700
TAFBKW
TAF
KBKW 151740Z 1518/1618 14008KT P6SM BKN250
     FM160600 16008KT P6SM BKN040
     FM160800 17008KT 5SM -SHRA OVC025
     FM161000 17008KT 3SM -SHRA BR OVC018
     FM161200 17008KT 6SM -SHRA BR OVC020
     FM161700 23010KT P6SM OVC015=

USA.gov is the U.S. government's official web portal to all federal, state and local government web resources and services.